Terminal Aerodrome Forecast
Issued by NWS Brownsville, TX

Home | Current Version | Previous Version | Text Only | Print | Product List | Glossary On
Versions: 1 2 3 4 5 6 7 8 9 10 11 12 13
506
FTUS44 KBRO 250526
TAFBRO
TAF
KBRO 250526Z 2506/2606 16008KT P6SM SCT022
     FM251700 15010KT P6SM FEW040 SCT250=

USA.gov is the U.S. government's official web portal to all federal, state and local government web resources and services.